UATG/GUW METAR and TAF weather

Enter ICAO airport designator
Station Type Date Time Source
UATG METAR 2019/02/17 15:30 UTC NOAA

UATG 171530Z 23003MPS 5000 BR BKN020 00/00 Q1006 R32/19//65 NOSIG RMK QFE756/1008


Station Type Date Time Source
UATG Decoded METAR 2019/02/17 15:30 UTC NOAA

Station name not available
Feb 17, 2019 - 10:30 AM EST / 2019.02.17 1530 UTC
Wind: from the SW (230 degrees) at 7 MPH (6 KT):0
Visibility: 3 mile(s):0
Sky conditions: mostly cloudy
Weather: mist
Temperature: 32 F (0 C)
Windchill: 24 F (-4 C):1
Dew Point: 32 F (0 C)
Relative Humidity: 100%
Pressure (altimeter): 29.71 in. Hg (1006 hPa)
ob: UATG 171530Z 23003MPS 5000 BR BKN020 00/00 Q1006 R32/19//65 NOSIG RMK QFE756/1008
cycle: 15

Station Type Date Time Source
UATG TAF 2019/02/17 12:18 UTC NOAA

TAF TAF UATG 171104Z 1712/1812 30008MPS 4000 BR BKN005 OVC011 TX02/1811Z TNM02/1804Z
BECMG 1716/1718 23010MPS
TEMPO 1716/1801 0300 FZFG VV002
TEMPO 1801/1812 27011G16MPS 1000 SN BLSN BKN003 OVC011


Example: see airport list